sensor_id;sensor_type;location;lat;lon;timestamp;pressure;altitude;pressure_sealevel;temperature;humidity
13420;BME280;6781;58.440;15.470;2022-11-28T00:01:48;103842.84;;;1.18;100.00
13420;BME280;6781;58.440;15.470;2022-11-28T00:53:07;103875.41;;;1.32;100.00
13420;BME280;6781;58.440;15.470;2022-11-28T00:55:37;103870.16;;;1.21;100.00
13420;BME280;6781;58.440;15.470;2022-11-28T00:58:15;103877.03;;;1.26;100.00
13420;BME280;6781;58.440;15.470;2022-11-28T01:00:45;103886.44;;;1.27;100.00
13420;BME280;6781;58.440;15.470;2022-11-28T01:03:39;103885.66;;;1.33;100.00
13420;BME280;6781;58.440;15.470;2022-11-28T01:06:52;103886.50;;;1.34;100.00
13420;BME280;6781;58.440;15.470;2022-11-28T01:12:57;103903.56;;;1.35;100.00
13420;BME280;6781;58.440;15.470;2022-11-28T01:15:44;103904.50;;;1.40;100.00
13420;BME280;6781;58.440;15.470;2022-11-28T01:18:30;103913.06;;;1.43;100.00
13420;BME280;6781;58.440;15.470;2022-11-28T01:21:14;103908.75;;;1.41;100.00
13420;BME280;6781;58.440;15.470;2022-11-28T01:23:44;103904.50;;;1.40;100.00
13420;BME280;6781;58.440;15.470;2022-11-28T01:26:28;103893.38;;;1.36;100.00
13420;BME280;6781;58.440;15.470;2022-11-28T01:47:04;103905.59;;;1.58;100.00
13420;BME280;6781;58.440;15.470;2022-11-28T01:49:37;103896.19;;;1.56;100.00
13420;BME280;6781;58.440;15.470;2022-11-28T01:52:08;103902.16;;;1.58;100.00
13420;BME280;6781;58.440;15.470;2022-11-28T01:54:41;103903.88;;;1.59;100.00
13420;BME280;6781;58.440;15.470;2022-11-28T01:57:23;103917.56;;;1.61;100.00
13420;BME280;6781;58.440;15.470;2022-11-28T05:02:14;103926.72;;;1.44;100.00
13420;BME280;6781;58.440;15.470;2022-11-28T05:04:52;103934.38;;;1.44;100.00
13420;BME280;6781;58.440;15.470;2022-11-28T05:13:42;103941.31;;;1.52;100.00
13420;BME280;6781;58.440;15.470;2022-11-28T05:38:40;103952.38;;;1.51;100.00
13420;BME280;6781;58.440;15.470;2022-11-28T05:44:38;103948.13;;;1.52;100.00
13420;BME280;6781;58.440;15.470;2022-11-28T05:50:32;103957.56;;;1.56;100.00
13420;BME280;6781;58.440;15.470;2022-11-28T05:53:01;103952.41;;;1.53;100.00
13420;BME280;6781;58.440;15.470;2022-11-28T05:55:52;103949.81;;;1.50;100.00
13420;BME280;6781;58.440;15.470;2022-11-28T06:01:33;103954.84;;;1.44;100.00
13420;BME280;6781;58.440;15.470;2022-11-28T06:04:18;103947.97;;;1.40;100.00
13420;BME280;6781;58.440;15.470;2022-11-28T06:06:48;103951.34;;;1.39;100.00
13420;BME280;6781;58.440;15.470;2022-11-28T06:09:28;103944.44;;;1.32;100.00
13420;BME280;6781;58.440;15.470;2022-11-28T06:12:09;103954.66;;;1.32;100.00
13420;BME280;6781;58.440;15.470;2022-11-28T06:14:41;103957.19;;;1.28;100.00
13420;BME280;6781;58.440;15.470;2022-11-28T06:17:40;103959.72;;;1.28;100.00
13420;BME280;6781;58.440;15.470;2022-11-28T06:20:08;103954.59;;;1.27;100.00
13420;BME280;6781;58.440;15.470;2022-11-28T06:22:36;103958.00;;;1.27;100.00
13420;BME280;6781;58.440;15.470;2022-11-28T06:25:29;103956.28;;;1.26;100.00
13420;BME280;6781;58.440;15.470;2022-11-28T06:28:23;103961.41;;;1.26;100.00
13420;BME280;6781;58.440;15.470;2022-11-28T06:46:32;103965.69;;;1.27;100.00
13420;BME280;6781;58.440;15.470;2022-11-28T06:49:16;103974.16;;;1.25;100.00
13420;BME280;6781;58.440;15.470;2022-11-28T06:51:56;103984.47;;;1.29;100.00
13420;BME280;6781;58.440;15.470;2022-11-28T06:54:27;103983.59;;;1.27;100.00
13420;BME280;6781;58.440;15.470;2022-11-28T06:57:14;103992.97;;;1.28;100.00
13420;BME280;6781;58.440;15.470;2022-11-28T07:00:03;103990.38;;;1.25;100.00
13420;BME280;6781;58.440;15.470;2022-11-28T07:05:43;103996.41;;;1.30;100.00
13420;BME280;6781;58.440;15.470;2022-11-28T07:08:14;103995.56;;;1.32;100.00
13420;BME280;6781;58.440;15.470;2022-11-28T07:11:36;104002.34;;;1.29;100.00
13420;BME280;6781;58.440;15.470;2022-11-28T07:17:44;104004.13;;;1.34;100.00
13420;BME280;6781;58.440;15.470;2022-11-28T12:05:50;104044.56;;;3.06;100.00
13420;BME280;6781;58.440;15.470;2022-11-28T12:08:33;104036.88;;;3.07;100.00
13420;BME280;6781;58.440;15.470;2022-11-28T12:11:10;104049.78;;;3.18;100.00
13420;BME280;6781;58.440;15.470;2022-11-28T12:13:52;104049.81;;;3.21;100.00
13420;BME280;6781;58.440;15.470;2022-11-28T12:16:28;104050.66;;;3.21;100.00
13420;BME280;6781;58.440;15.470;2022-11-28T12:19:19;104039.59;;;3.25;100.00
13420;BME280;6781;58.440;15.470;2022-11-28T12:22:00;104038.69;;;3.20;100.00
13420;BME280;6781;58.440;15.470;2022-11-28T12:24:41;104027.56;;;3.20;100.00
13420;BME280;6781;58.440;15.470;2022-11-28T12:27:28;104036.13;;;3.20;100.00
13420;BME280;6781;58.440;15.470;2022-11-28T12:30:04;104030.13;;;3.18;100.00
13420;BME280;6781;58.440;15.470;2022-11-28T12:32:37;104020.69;;;3.14;100.00
13420;BME280;6781;58.440;15.470;2022-11-28T12:35:16;104023.31;;;3.20;100.00
13420;BME280;6781;58.440;15.470;2022-11-28T12:38:01;104027.53;;;3.14;100.00
13420;BME280;6781;58.440;15.470;2022-11-28T12:40:41;104028.44;;;3.20;100.00
13420;BME280;6781;58.440;15.470;2022-11-28T12:43:18;104026.66;;;3.13;100.00
13420;BME280;6781;58.440;15.470;2022-11-28T12:45:58;104014.72;;;3.15;100.00
13420;BME280;6781;58.440;15.470;2022-11-28T12:48:38;104019.84;;;3.15;100.00
13420;BME280;6781;58.440;15.470;2022-11-28T12:51:12;104018.16;;;3.19;100.00
13420;BME280;6781;58.440;15.470;2022-11-28T12:53:47;104007.81;;;3.08;100.00
13420;BME280;6781;58.440;15.470;2022-11-28T12:56:37;103997.50;;;3.02;100.00
13420;BME280;6781;58.440;15.470;2022-11-28T12:59:11;103996.66;;;3.02;100.00
13420;BME280;6781;58.440;15.470;2022-11-28T13:01:51;104000.94;;;3.04;100.00
13420;BME280;6781;58.440;15.470;2022-11-28T13:04:25;104010.38;;;3.07;100.00
13420;BME280;6781;58.440;15.470;2022-11-28T13:06:57;104012.91;;;3.05;100.00
13420;BME280;6781;58.440;15.470;2022-11-28T13:12:28;104020.69;;;3.14;100.00
13420;BME280;6781;58.440;15.470;2022-11-28T13:15:20;104021.50;;;3.10;100.00
13420;BME280;6781;58.440;15.470;2022-11-28T13:17:54;104006.91;;;3.00;100.00
13420;BME280;6781;58.440;15.470;2022-11-28T13:20:24;104015.44;;;3.01;100.00
13420;BME280;6781;58.440;15.470;2022-11-28T13:23:12;104024.91;;;3.06;100.00
13420;BME280;6781;58.440;15.470;2022-11-28T13:25:45;104017.19;;;3.03;100.00
13420;BME280;6781;58.440;15.470;2022-11-28T13:28:18;104013.75;;;3.01;100.00
13420;BME280;6781;58.440;15.470;2022-11-28T13:30:49;104022.28;;;3.02;100.00
13420;BME280;6781;58.440;15.470;2022-11-28T13:33:25;104017.19;;;3.03;100.00
13420;BME280;6781;58.440;15.470;2022-11-28T13:36:07;104019.69;;;2.97;100.00
13420;BME280;6781;58.440;15.470;2022-11-28T13:38:47;104021.41;;;2.98;100.00
13420;BME280;6781;58.440;15.470;2022-11-28T13:41:21;104016.28;;;3.00;100.00
13420;BME280;6781;58.440;15.470;2022-11-28T13:43:52;104013.69;;;2.95;100.00
13420;BME280;6781;58.440;15.470;2022-11-28T13:46:21;104018.81;;;2.95;100.00
13420;BME280;6781;58.440;15.470;2022-11-28T13:48:57;104014.56;;;2.97;100.00
13420;BME280;6781;58.440;15.470;2022-11-28T13:51:24;104019.63;;;2.91;100.00
13420;BME280;6781;58.440;15.470;2022-11-28T13:56:35;104028.25;;;2.99;100.00
13420;BME280;6781;58.440;15.470;2022-11-28T13:59:04;104035.03;;;2.91;100.00
13420;BME280;6781;58.440;15.470;2022-11-28T14:01:41;104031.59;;;2.89;100.00
13420;BME280;6781;58.440;15.470;2022-11-28T14:04:09;104029.88;;;2.91;100.00
13420;BME280;6781;58.440;15.470;2022-11-28T14:06:41;104031.63;;;2.95;100.00
13420;BME280;6781;58.440;15.470;2022-11-28T14:09:15;104033.31;;;2.93;100.00
13420;BME280;6781;58.440;15.470;2022-11-28T14:11:51;104034.16;;;2.92;100.00
13420;BME280;6781;58.440;15.470;2022-11-28T14:14:26;104035.88;;;2.90;100.00
13420;BME280;6781;58.440;15.470;2022-11-28T14:17:01;104036.75;;;2.92;100.00
13420;BME280;6781;58.440;15.470;2022-11-28T14:19:37;104037.63;;;2.96;100.00
13420;BME280;6781;58.440;15.470;2022-11-28T14:22:13;104040.19;;;2.97;100.00
13420;BME280;6781;58.440;15.470;2022-11-28T14:24:48;104033.31;;;2.93;100.00
13420;BME280;6781;58.440;15.470;2022-11-28T14:27:19;104041.88;;;2.92;100.00
13420;BME280;6781;58.440;15.470;2022-11-28T14:29:49;104038.44;;;2.93;100.00
13420;BME280;6781;58.440;15.470;2022-11-28T14:32:23;104035.03;;;2.92;100.00
13420;BME280;6781;58.440;15.470;2022-11-28T14:34:50;104036.75;;;2.95;100.00
13420;BME280;6781;58.440;15.470;2022-11-28T14:43:20;104045.25;;;2.88;100.00
13420;BME280;6781;58.440;15.470;2022-11-28T14:45:48;104052.97;;;2.91;100.00
13420;BME280;6781;58.440;15.470;2022-11-28T14:48:17;104045.28;;;2.91;100.00
13420;BME280;6781;58.440;15.470;2022-11-28T14:50:45;104048.72;;;2.93;100.00
13420;BME280;6781;58.440;15.470;2022-11-28T14:56:10;104045.31;;;2.94;100.00
13420;BME280;6781;58.440;15.470;2022-11-28T14:58:46;104048.72;;;2.93;100.00
13420;BME280;6781;58.440;15.470;2022-11-28T15:01:16;104047.84;;;2.91;100.00
13420;BME280;6781;58.440;15.470;2022-11-28T15:03:47;104050.41;;;2.91;100.00
13420;BME280;6781;58.440;15.470;2022-11-28T15:06:18;104046.13;;;2.91;100.00
13420;BME280;6781;58.440;15.470;2022-11-28T15:08:52;104055.56;;;2.96;100.00
13420;BME280;6781;58.440;15.470;2022-11-28T15:11:32;104057.28;;;2.95;100.00
13420;BME280;6781;58.440;15.470;2022-11-28T15:14:04;104058.94;;;2.90;100.00
13420;BME280;6781;58.440;15.470;2022-11-28T15:16:45;104067.53;;;2.95;100.00
13420;BME280;6781;58.440;15.470;2022-11-28T15:22:29;104076.06;;;2.94;100.00
13420;BME280;6781;58.440;15.470;2022-11-28T15:25:15;104075.19;;;2.93;100.00
13420;BME280;6781;58.440;15.470;2022-11-28T15:28:13;104082.06;;;2.96;100.00
13420;BME280;6781;58.440;15.470;2022-11-28T15:30:48;104082.97;;;3.01;100.00
13420;BME280;6781;58.440;15.470;2022-11-28T15:33:45;104078.66;;;2.97;100.00
13420;BME280;6781;58.440;15.470;2022-11-28T15:36:21;104088.06;;;2.98;100.00
13420;BME280;6781;58.440;15.470;2022-11-28T15:38:51;104084.66;;;2.99;100.00
13420;BME280;6781;58.440;15.470;2022-11-28T15:41:19;104076.06;;;2.94;100.00
13420;BME280;6781;58.440;15.470;2022-11-28T15:43:46;104093.19;;;2.98;100.00
13420;BME280;6781;58.440;15.470;2022-11-28T15:46:15;104082.09;;;2.99;100.00
13420;BME280;6781;58.440;15.470;2022-11-28T15:48:47;104090.66;;;3.00;100.00
13420;BME280;6781;58.440;15.470;2022-11-28T15:51:21;104087.19;;;2.94;100.00
13420;BME280;6781;58.440;15.470;2022-11-28T15:53:49;104093.19;;;2.98;100.00
13420;BME280;6781;58.440;15.470;2022-11-28T15:56:16;104094.03;;;2.97;100.00
13420;BME280;6781;58.440;15.470;2022-11-28T15:58:43;104096.66;;;3.02;100.00
13420;BME280;6781;58.440;15.470;2022-11-28T16:01:12;104093.19;;;2.98;100.00
13420;BME280;6781;58.440;15.470;2022-11-28T16:03:44;104086.31;;;2.94;100.00
13420;BME280;6781;58.440;15.470;2022-11-28T16:06:14;104087.19;;;2.94;100.00
13420;BME280;6781;58.440;15.470;2022-11-28T16:08:45;104083.75;;;2.92;100.00
13420;BME280;6781;58.440;15.470;2022-11-28T16:11:14;104079.50;;;2.96;100.00
13420;BME280;6781;58.440;15.470;2022-11-28T16:13:45;104078.59;;;2.89;100.00
13420;BME280;6781;58.440;15.470;2022-11-28T16:16:15;104084.56;;;2.90;100.00
13420;BME280;6781;58.440;15.470;2022-11-28T16:18:42;104081.16;;;2.91;100.00
13420;BME280;6781;58.440;15.470;2022-11-28T16:21:10;104080.28;;;2.87;100.00
13420;BME280;6781;58.440;15.470;2022-11-28T16:23:48;104091.38;;;2.88;100.00
13420;BME280;6781;58.440;15.470;2022-11-28T16:26:22;104090.53;;;2.87;100.00
13420;BME280;6781;58.440;15.470;2022-11-28T16:31:36;104091.31;;;2.82;100.00
13420;BME280;6781;58.440;15.470;2022-11-28T16:34:02;104093.91;;;2.85;100.00
13420;BME280;6781;58.440;15.470;2022-11-28T16:36:30;104093.94;;;2.86;100.00
13420;BME280;6781;58.440;15.470;2022-11-28T16:39:05;104095.63;;;2.84;100.00
13420;BME280;6781;58.440;15.470;2022-11-28T16:41:33;104091.31;;;2.82;100.00
13420;BME280;6781;58.440;15.470;2022-11-28T16:44:04;104084.47;;;2.79;100.00
13420;BME280;6781;58.440;15.470;2022-11-28T16:46:50;104098.13;;;2.80;100.00
13420;BME280;6781;58.440;15.470;2022-11-28T16:49:30;104095.56;;;2.80;100.00
13420;BME280;6781;58.440;15.470;2022-11-28T16:52:13;104098.16;;;2.83;100.00
13420;BME280;6781;58.440;15.470;2022-11-28T16:54:58;104101.56;;;2.80;100.00
13420;BME280;6781;58.440;15.470;2022-11-28T16:57:27;104099.88;;;2.82;100.00
13420;BME280;6781;58.440;15.470;2022-11-28T17:02:38;104104.19;;;2.88;100.00
13420;BME280;6781;58.440;15.470;2022-11-28T17:05:06;104110.13;;;2.84;100.00
13420;BME280;6781;58.440;15.470;2022-11-28T17:07:37;104105.88;;;2.86;100.00
13420;BME280;6781;58.440;15.470;2022-11-28T17:13:15;104108.44;;;2.86;100.00
13420;BME280;6781;58.440;15.470;2022-11-28T17:15:43;104111.00;;;2.84;100.00
13420;BME280;6781;58.440;15.470;2022-11-28T17:18:11;104110.16;;;2.87;100.00
13420;BME280;6781;58.440;15.470;2022-11-28T17:20:38;104115.38;;;2.93;100.00
13420;BME280;6781;58.440;15.470;2022-11-28T17:23:07;104115.34;;;2.90;100.00
13420;BME280;6781;58.440;15.470;2022-11-28T17:25:34;104113.53;;;2.83;100.00
13420;BME280;6781;58.440;15.470;2022-11-28T17:28:01;104119.56;;;2.86;100.00
13420;BME280;6781;58.440;15.470;2022-11-28T17:30:30;104117.03;;;2.88;100.00
13420;BME280;6781;58.440;15.470;2022-11-28T17:32:57;104123.00;;;2.87;100.00
13420;BME280;6781;58.440;15.470;2022-11-28T17:35:24;104121.19;;;2.78;100.00
13420;BME280;6781;58.440;15.470;2022-11-28T17:37:56;104134.94;;;2.86;100.00
13420;BME280;6781;58.440;15.470;2022-11-28T17:40:22;104141.81;;;2.90;100.00
13420;BME280;6781;58.440;15.470;2022-11-28T17:42:58;104132.34;;;2.83;100.00
13420;BME280;6781;58.440;15.470;2022-11-28T17:45:25;104132.25;;;2.76;100.00
13420;BME280;6781;58.440;15.470;2022-11-28T17:47:54;104133.13;;;2.76;100.00
13420;BME280;6781;58.440;15.470;2022-11-28T17:50:21;104138.28;;;2.78;100.00
13420;BME280;6781;58.440;15.470;2022-11-28T17:52:47;104135.72;;;2.78;100.00
13420;BME280;6781;58.440;15.470;2022-11-28T17:55:14;104137.47;;;2.83;100.00
13420;BME280;6781;58.440;15.470;2022-11-28T17:57:42;104138.28;;;2.79;100.00
13420;BME280;6781;58.440;15.470;2022-11-28T18:00:10;104139.16;;;2.80;100.00
13420;BME280;6781;58.440;15.470;2022-11-28T18:02:37;104142.47;;;2.73;100.00
13420;BME280;6781;58.440;15.470;2022-11-28T18:05:05;104142.56;;;2.79;100.00
13420;BME280;6781;58.440;15.470;2022-11-28T18:07:32;104145.13;;;2.79;100.00
13420;BME280;6781;58.440;15.470;2022-11-28T18:09:59;104144.28;;;2.80;100.00
13420;BME280;6781;58.440;15.470;2022-11-28T18:12:26;104147.69;;;2.79;100.00
13420;BME280;6781;58.440;15.470;2022-11-28T18:14:52;104138.25;;;2.76;100.00
13420;BME280;6781;58.440;15.470;2022-11-28T18:17:19;104143.38;;;2.76;100.00
13420;BME280;6781;58.440;15.470;2022-11-28T18:19:45;104140.78;;;2.75;100.00
13420;BME280;6781;58.440;15.470;2022-11-28T18:22:13;104142.53;;;2.76;100.00
13420;BME280;6781;58.440;15.470;2022-11-28T18:24:40;104139.88;;;2.70;100.00
13420;BME280;6781;58.440;15.470;2022-11-28T18:27:06;104139.84;;;2.67;100.00
13420;BME280;6781;58.440;15.470;2022-11-28T18:29:33;104136.47;;;2.71;100.00
13420;BME280;6781;58.440;15.470;2022-11-28T18:32:00;104139.06;;;2.74;100.00
13420;BME280;6781;58.440;15.470;2022-11-28T18:34:27;104139.88;;;2.70;100.00
13420;BME280;6781;58.440;15.470;2022-11-28T18:36:54;104136.47;;;2.71;100.00
13420;BME280;6781;58.440;15.470;2022-11-28T18:39:26;104129.63;;;2.68;100.00
13420;BME280;6781;58.440;15.470;2022-11-28T18:41:53;104134.78;;;2.71;100.00
13420;BME280;6781;58.440;15.470;2022-11-28T18:44:20;104130.47;;;2.69;100.00
13420;BME280;6781;58.440;15.470;2022-11-28T18:46:47;104117.63;;;2.66;100.00
13420;BME280;6781;58.440;15.470;2022-11-28T18:49:14;104128.78;;;2.71;100.00
13420;BME280;6781;58.440;15.470;2022-11-28T18:51:41;104125.38;;;2.72;100.00
13420;BME280;6781;58.440;15.470;2022-11-28T18:54:08;104113.34;;;2.65;100.00
13420;BME280;6781;58.440;15.470;2022-11-28T18:56:36;104133.09;;;2.75;100.00
13420;BME280;6781;58.440;15.470;2022-11-28T18:59:03;104125.38;;;2.72;100.00
13420;BME280;6781;58.440;15.470;2022-11-28T19:01:30;104128.78;;;2.69;100.00
13420;BME280;6781;58.440;15.470;2022-11-28T19:04:00;104127.03;;;2.67;100.00
13420;BME280;6781;58.440;15.470;2022-11-28T19:06:27;104127.00;;;2.64;100.00
13420;BME280;6781;58.440;15.470;2022-11-28T19:08:55;104126.16;;;2.65;100.00
13420;BME280;6781;58.440;15.470;2022-11-28T19:11:22;104133.84;;;2.65;100.00
13420;BME280;6781;58.440;15.470;2022-11-28T19:13:50;104133.84;;;2.65;100.00
13420;BME280;6781;58.440;15.470;2022-11-28T19:16:18;104133.84;;;2.65;100.00
13420;BME280;6781;58.440;15.470;2022-11-28T19:18:45;104145.75;;;2.59;100.00
13420;BME280;6781;58.440;15.470;2022-11-28T19:21:12;104137.19;;;2.59;100.00
13420;BME280;6781;58.440;15.470;2022-11-28T19:23:39;104147.50;;;2.64;100.00
13420;BME280;6781;58.440;15.470;2022-11-28T19:26:07;104153.53;;;2.69;100.00
13420;BME280;6781;58.440;15.470;2022-11-28T19:28:35;104145.81;;;2.66;100.00
13420;BME280;6781;58.440;15.470;2022-11-28T19:31:07;104156.06;;;2.66;100.00
13420;BME280;6781;58.440;15.470;2022-11-28T19:33:34;104150.97;;;2.67;100.00
13420;BME280;6781;58.440;15.470;2022-11-28T19:36:01;104162.94;;;2.70;100.00
13420;BME280;6781;58.440;15.470;2022-11-28T19:38:28;104164.63;;;2.68;100.00
13420;BME280;6781;58.440;15.470;2022-11-28T19:40:57;104163.78;;;2.69;100.00
13420;BME280;6781;58.440;15.470;2022-11-28T19:43:23;104165.56;;;2.74;100.00
13420;BME280;6781;58.440;15.470;2022-11-28T19:45:53;104161.25;;;2.72;100.00
13420;BME280;6781;58.440;15.470;2022-11-28T19:48:22;104164.69;;;2.74;100.00
13420;BME280;6781;58.440;15.470;2022-11-28T19:50:48;104168.09;;;2.73;100.00
13420;BME280;6781;58.440;15.470;2022-11-28T19:53:16;104172.41;;;2.75;100.00
13420;BME280;6781;58.440;15.470;2022-11-28T19:55:44;104178.34;;;2.71;100.00
13420;BME280;6781;58.440;15.470;2022-11-28T19:58:12;104180.94;;;2.74;100.00
13420;BME280;6781;58.440;15.470;2022-11-28T20:00:39;104175.78;;;2.73;100.00
13420;BME280;6781;58.440;15.470;2022-11-28T20:03:06;104178.41;;;2.76;100.00
13420;BME280;6781;58.440;15.470;2022-11-28T20:05:34;104185.22;;;2.74;100.00
13420;BME280;6781;58.440;15.470;2022-11-28T20:08:02;104180.97;;;2.76;100.00
13420;BME280;6781;58.440;15.470;2022-11-28T20:10:30;104182.63;;;2.72;100.00
13420;BME280;6781;58.440;15.470;2022-11-28T20:12:57;104185.25;;;2.77;100.00
13420;BME280;6781;58.440;15.470;2022-11-28T20:15:23;104185.22;;;2.74;100.00
13420;BME280;6781;58.440;15.470;2022-11-28T20:17:50;104182.59;;;2.71;100.00
13420;BME280;6781;58.440;15.470;2022-11-28T20:20:17;104184.38;;;2.76;100.00
13420;BME280;6781;58.440;15.470;2022-11-28T20:22:45;104181.75;;;2.72;100.00
13420;BME280;6781;58.440;15.470;2022-11-28T20:25:11;104176.69;;;2.75;100.00
13420;BME280;6781;58.440;15.470;2022-11-28T20:27:38;104185.22;;;2.74;100.00
13420;BME280;6781;58.440;15.470;2022-11-28T20:30:06;104177.56;;;2.77;100.00
13420;BME280;6781;58.440;15.470;2022-11-28T20:32:34;104183.53;;;2.76;100.00
13420;BME280;6781;58.440;15.470;2022-11-28T20:35:00;104180.13;;;2.77;100.00
13420;BME280;6781;58.440;15.470;2022-11-28T20:37:28;104188.69;;;2.79;100.00
13420;BME280;6781;58.440;15.470;2022-11-28T20:39:57;104183.53;;;2.76;100.00
13420;BME280;6781;58.440;15.470;2022-11-28T20:42:23;104183.47;;;2.73;100.00
13420;BME280;6781;58.440;15.470;2022-11-28T20:44:50;104176.69;;;2.75;100.00
13420;BME280;6781;58.440;15.470;2022-11-28T20:47:17;104183.47;;;2.73;100.00
13420;BME280;6781;58.440;15.470;2022-11-28T20:49:43;104183.47;;;2.73;100.00
13420;BME280;6781;58.440;15.470;2022-11-28T20:52:10;104186.88;;;2.72;100.00
13420;BME280;6781;58.440;15.470;2022-11-28T20:54:37;104192.09;;;2.78;100.00
13420;BME280;6781;58.440;15.470;2022-11-28T20:57:05;104193.72;;;2.73;100.00
13420;BME280;6781;58.440;15.470;2022-11-28T20:59:31;104196.31;;;2.74;100.00
13420;BME280;6781;58.440;15.470;2022-11-28T21:01:59;104190.28;;;2.71;100.00
13420;BME280;6781;58.440;15.470;2022-11-28T21:04:26;104198.81;;;2.70;100.00
13420;BME280;6781;58.440;15.470;2022-11-28T21:06:52;104201.47;;;2.76;100.00
13420;BME280;6781;58.440;15.470;2022-11-28T21:09:19;104205.72;;;2.74;100.00
13420;BME280;6781;58.440;15.470;2022-11-28T21:11:45;104196.25;;;2.70;100.00
13420;BME280;6781;58.440;15.470;2022-11-28T21:14:14;104197.19;;;2.75;100.00
13420;BME280;6781;58.440;15.470;2022-11-28T21:16:43;104205.72;;;2.74;100.00
13420;BME280;6781;58.440;15.470;2022-11-28T21:19:09;104196.25;;;2.68;100.00
13420;BME280;6781;58.440;15.470;2022-11-28T21:21:37;104201.44;;;2.73;100.00
13420;BME280;6781;58.440;15.470;2022-11-28T21:24:04;104203.09;;;2.71;100.00
13420;BME280;6781;58.440;15.470;2022-11-28T21:26:31;104203.97;;;2.71;100.00
13420;BME280;6781;58.440;15.470;2022-11-28T21:28:59;104203.94;;;2.70;100.00
13420;BME280;6781;58.440;15.470;2022-11-28T21:31:29;104197.13;;;2.72;100.00
13420;BME280;6781;58.440;15.470;2022-11-28T21:33:57;104195.41;;;2.71;100.00
13420;BME280;6781;58.440;15.470;2022-11-28T21:36:25;104200.53;;;2.71;100.00
13420;BME280;6781;58.440;15.470;2022-11-28T21:38:53;104203.16;;;2.74;100.00
13420;BME280;6781;58.440;15.470;2022-11-28T21:41:20;104193.69;;;2.70;100.00
13420;BME280;6781;58.440;15.470;2022-11-28T21:43:47;104195.41;;;2.71;100.00
13420;BME280;6781;58.440;15.470;2022-11-28T21:46:14;104195.47;;;2.75;100.00
13420;BME280;6781;58.440;15.470;2022-11-28T21:48:42;104195.41;;;2.71;100.00
13420;BME280;6781;58.440;15.470;2022-11-28T21:51:13;104197.09;;;2.69;100.00
13420;BME280;6781;58.440;15.470;2022-11-28T21:53:40;104194.56;;;2.70;100.00
13420;BME280;6781;58.440;15.470;2022-11-28T21:56:07;104191.13;;;2.68;100.00
13420;BME280;6781;58.440;15.470;2022-11-28T21:58:35;104194.47;;;2.64;100.00
13420;BME280;6781;58.440;15.470;2022-11-28T22:01:03;104186.81;;;2.66;100.00
13420;BME280;6781;58.440;15.470;2022-11-28T22:03:30;104185.16;;;2.69;100.00
13420;BME280;6781;58.440;15.470;2022-11-28T22:06:01;104183.53;;;2.76;100.00
13420;BME280;6781;58.440;15.470;2022-11-28T22:08:28;104187.72;;;2.71;100.00
13420;BME280;6781;58.440;15.470;2022-11-28T22:10:55;104188.63;;;2.73;100.00
13420;BME280;6781;58.440;15.470;2022-11-28T22:13:25;104180.97;;;2.76;100.00
13420;BME280;6781;58.440;15.470;2022-11-28T22:15:51;104181.84;;;2.78;100.00
13420;BME280;6781;58.440;15.470;2022-11-28T22:18:18;104198.13;;;2.81;100.00
13420;BME280;6781;58.440;15.470;2022-11-28T22:20:45;104195.53;;;2.80;100.00
13420;BME280;6781;58.440;15.470;2022-11-28T22:23:13;104186.09;;;2.77;100.00
13420;BME280;6781;58.440;15.470;2022-11-28T22:25:48;104192.16;;;2.84;100.00
13420;BME280;6781;58.440;15.470;2022-11-28T22:28:15;104204.97;;;2.82;100.00
13420;BME280;6781;58.440;15.470;2022-11-28T22:30:41;104198.16;;;2.86;100.00
13420;BME280;6781;58.440;15.470;2022-11-28T22:33:08;104201.63;;;2.88;100.00
13420;BME280;6781;58.440;15.470;2022-11-28T22:35:35;104205.81;;;2.83;100.00
13420;BME280;6781;58.440;15.470;2022-11-28T22:38:01;104209.28;;;2.85;100.00
13420;BME280;6781;58.440;15.470;2022-11-28T22:40:29;104201.56;;;2.83;100.00
13420;BME280;6781;58.440;15.470;2022-11-28T22:42:56;104203.28;;;2.84;100.00
13420;BME280;6781;58.440;15.470;2022-11-28T22:45:23;104200.63;;;2.77;100.00
13420;BME280;6781;58.440;15.470;2022-11-28T22:47:49;104202.34;;;2.78;100.00
13420;BME280;6781;58.440;15.470;2022-11-28T22:50:16;104198.88;;;2.73;100.00
13420;BME280;6781;58.440;15.470;2022-11-28T22:52:43;104196.25;;;2.68;100.00
13420;BME280;6781;58.440;15.470;2022-11-28T22:55:10;104198.88;;;2.73;100.00
13420;BME280;6781;58.440;15.470;2022-11-28T22:57:39;104208.28;;;2.75;100.00
13420;BME280;6781;58.440;15.470;2022-11-28T23:00:06;104217.66;;;2.72;100.00
13420;BME280;6781;58.440;15.470;2022-11-28T23:02:34;104201.34;;;2.67;100.00
13420;BME280;6781;58.440;15.470;2022-11-28T23:05:00;104213.34;;;2.69;100.00
13420;BME280;6781;58.440;15.470;2022-11-28T23:07:27;104213.38;;;2.72;100.00
13420;BME280;6781;58.440;15.470;2022-11-28T23:09:54;104210.78;;;2.71;100.00
13420;BME280;6781;58.440;15.470;2022-11-28T23:12:21;104219.41;;;2.76;100.00
13420;BME280;6781;58.440;15.470;2022-11-28T23:14:49;104224.56;;;2.79;100.00
13420;BME280;6781;58.440;15.470;2022-11-28T23:17:16;104221.13;;;2.77;100.00
13420;BME280;6781;58.440;15.470;2022-11-28T23:19:42;104224.56;;;2.79;100.00
13420;BME280;6781;58.440;15.470;2022-11-28T23:22:09;104224.56;;;2.79;100.00
13420;BME280;6781;58.440;15.470;2022-11-28T23:24:36;104230.59;;;2.82;100.00
13420;BME280;6781;58.440;15.470;2022-11-28T23:27:02;104223.66;;;2.75;100.00
13420;BME280;6781;58.440;15.470;2022-11-28T23:29:29;104232.25;;;2.77;100.00
13420;BME280;6781;58.440;15.470;2022-11-28T23:31:57;104229.72;;;2.82;100.00
13420;BME280;6781;58.440;15.470;2022-11-28T23:34:24;104238.34;;;2.87;100.00
13420;BME280;6781;58.440;15.470;2022-11-28T23:36:51;104237.41;;;2.80;100.00
13420;BME280;6781;58.440;15.470;2022-11-28T23:39:18;104244.19;;;2.77;100.00